createdAt,value
2023-01-06T00:02:10.773Z,5.48
2023-01-06T00:04:40.829Z,5.54
2023-01-06T00:09:40.824Z,6.41
2023-01-06T00:12:10.844Z,5.86
2023-01-06T00:14:40.864Z,8.1
2023-01-06T00:17:10.923Z,7.55
2023-01-06T00:19:40.941Z,6.69
2023-01-06T00:22:10.927Z,6.27
2023-01-06T00:24:40.965Z,7.8
2023-01-06T00:27:10.988Z,8.23
2023-01-06T00:32:11.059Z,5.36
2023-01-06T00:34:41.079Z,5.83
2023-01-06T00:37:11.095Z,7
2023-01-06T00:39:41.119Z,5.62
2023-01-06T00:44:41.154Z,7.09
2023-01-06T00:49:41.198Z,5.79
2023-01-06T00:52:11.270Z,4.95
2023-01-06T00:54:48.301Z,5.88
2023-01-06T00:57:11.307Z,5.98
2023-01-06T00:59:41.280Z,5.36
2023-01-06T01:04:41.347Z,4.44
2023-01-06T01:07:11.381Z,5.59
2023-01-06T01:09:41.397Z,6.65
2023-01-06T01:14:41.447Z,5.51
2023-01-06T01:17:11.498Z,4.27
2023-01-06T01:19:41.497Z,5.21
2023-01-06T01:22:11.520Z,8.08
2023-01-06T01:24:41.560Z,6.42
2023-01-06T01:27:11.577Z,7.18
2023-01-06T01:29:41.609Z,6.35
2023-01-06T01:32:11.627Z,6.5
2023-01-06T01:34:41.631Z,6.87
2023-01-06T01:39:41.700Z,7.64
2023-01-06T01:47:11.749Z,6.36
2023-01-06T01:49:41.766Z,9.73
2023-01-06T01:52:11.806Z,7.34
2023-01-06T01:54:41.823Z,8.94
2023-01-06T01:59:41.868Z,7.96
2023-01-06T02:02:12.018Z,6.36
2023-01-06T02:09:41.941Z,5.97
2023-01-06T02:12:11.993Z,5.18
2023-01-06T02:14:42.005Z,4.49
2023-01-06T02:17:12.028Z,4.48
2023-01-06T02:19:42.054Z,7.79
2023-01-06T02:22:12.070Z,7.85
2023-01-06T02:24:42.113Z,6.24
2023-01-06T02:29:42.155Z,4.66
2023-01-06T02:32:12.182Z,5.16
2023-01-06T02:34:42.222Z,5.81
2023-01-06T02:37:12.215Z,4.83
2023-01-06T02:42:12.268Z,6.22
2023-01-06T02:44:42.277Z,7.46
2023-01-06T02:47:12.300Z,7.74
2023-01-06T02:52:12.366Z,6.23
2023-01-06T02:54:42.396Z,5.35
2023-01-06T02:57:12.420Z,4.41
2023-01-06T02:59:42.432Z,3.68
2023-01-06T03:07:12.483Z,3.64
2023-01-06T03:09:42.529Z,3.97
2023-01-06T03:12:12.570Z,4.05
2023-01-06T03:17:12.606Z,4.9
2023-01-06T03:19:42.632Z,6.6
2023-01-06T03:32:12.747Z,4.25
2023-01-06T03:39:42.816Z,4.5
2023-01-06T03:42:24.556Z,2.95
2023-01-06T03:47:12.864Z,2.74
2023-01-06T03:49:42.905Z,3.09
2023-01-06T03:52:12.935Z,3.09
2023-01-06T03:59:42.996Z,3.56
2023-01-06T04:02:13.034Z,3
2023-01-06T04:04:43.018Z,2.76
2023-01-06T04:09:43.103Z,2.53
2023-01-06T04:12:13.092Z,3.25
2023-01-06T04:14:43.116Z,2.48
2023-01-06T04:19:43.186Z,4.01
2023-01-06T04:22:13.206Z,3.89
2023-01-06T04:24:43.262Z,4.45
2023-01-06T04:39:43.374Z,2.04
2023-01-06T04:42:13.401Z,2.79
2023-01-06T04:44:43.411Z,2.4
2023-01-06T04:49:43.449Z,3.22
2023-01-06T04:52:13.473Z,2.48
2023-01-06T04:54:43.511Z,2.41
2023-01-06T04:57:13.528Z,2.34
2023-01-06T04:59:43.560Z,1.75
2023-01-06T05:02:13.580Z,1.73
2023-01-06T05:04:47.796Z,1.3
2023-01-06T05:07:13.620Z,2.09
2023-01-06T05:09:43.672Z,1.92
2023-01-06T05:12:13.669Z,2.22
2023-01-06T05:14:43.719Z,1.71
2023-01-06T05:17:13.732Z,2
2023-01-06T05:19:43.761Z,2.26
2023-01-06T05:22:13.755Z,2.77
2023-01-06T05:24:43.791Z,2.15
2023-01-06T05:27:13.831Z,2.59
2023-01-06T05:32:13.853Z,2.12
2023-01-06T05:34:43.893Z,10.25
2023-01-06T05:37:13.914Z,5.85
2023-01-06T05:39:43.938Z,4.17
2023-01-06T05:42:13.956Z,3.08
2023-01-06T05:44:44.012Z,3.12
2023-01-06T05:47:14.015Z,5.4
2023-01-06T05:49:44.035Z,5.25
2023-01-06T05:52:14.058Z,4.05
2023-01-06T05:54:44.099Z,3.27
2023-01-06T05:57:14.110Z,2.27
2023-01-06T05:59:44.124Z,2.29
2023-01-06T06:04:44.183Z,3.73
2023-01-06T06:07:14.186Z,3.03
2023-01-06T06:09:44.220Z,2.32
2023-01-06T06:12:14.262Z,3.53
2023-01-06T06:14:44.272Z,2.58
2023-01-06T06:17:14.291Z,2.05
2023-01-06T06:19:44.308Z,2.88
2023-01-06T06:22:14.338Z,2.86
2023-01-06T06:24:44.369Z,2.35
2023-01-06T06:27:14.373Z,3.49
2023-01-06T06:29:44.387Z,5.05
2023-01-06T06:32:14.443Z,4.08
2023-01-06T06:34:44.452Z,3.91
2023-01-06T06:39:44.496Z,3.06
2023-01-06T06:42:14.533Z,2.17
2023-01-06T06:44:44.548Z,2.43
2023-01-06T06:47:14.560Z,4.6
2023-01-06T06:49:44.604Z,3.23
2023-01-06T06:52:14.618Z,2.33
2023-01-06T06:54:44.636Z,5.8
2023-01-06T06:59:44.715Z,3.35
2023-01-06T07:02:14.841Z,2.84
2023-01-06T07:04:44.803Z,3.84
2023-01-06T07:07:14.770Z,2.89
2023-01-06T07:09:44.796Z,2.78
2023-01-06T07:12:14.804Z,3.14
2023-01-06T07:14:44.830Z,3.04
2023-01-06T07:17:14.858Z,3.08
2023-01-06T07:19:44.915Z,3.51
2023-01-06T07:22:14.888Z,2.89
2023-01-06T07:24:44.930Z,4.83
2023-01-06T07:32:14.995Z,4.26
2023-01-06T07:34:45.001Z,4.05
2023-01-06T07:39:45.065Z,3.5
2023-01-06T07:44:45.116Z,3.75
2023-01-06T07:47:15.133Z,4.51
2023-01-06T07:49:45.158Z,5.04
2023-01-06T07:52:15.184Z,4.74
2023-01-06T07:54:45.209Z,4.12
2023-01-06T07:57:17.301Z,3.86
2023-01-06T07:59:45.255Z,3.78
2023-01-06T08:02:15.374Z,3.4
2023-01-06T08:04:45.316Z,5.6
2023-01-06T08:07:15.342Z,5.96
2023-01-06T08:09:45.379Z,4.55
2023-01-06T08:12:15.362Z,3.72
2023-01-06T08:17:15.434Z,5.89
2023-01-06T08:19:45.446Z,4.77
2023-01-06T08:22:15.488Z,4.39
2023-01-06T08:24:45.496Z,3.4
2023-01-06T08:27:15.511Z,4.31
2023-01-06T08:29:45.529Z,4.5
2023-01-06T08:32:15.569Z,4.49
2023-01-06T08:34:45.599Z,3.61
2023-01-06T08:37:15.597Z,3.51
2023-01-06T08:39:45.625Z,3.22
2023-01-06T08:42:15.648Z,3.06
2023-01-06T08:44:45.685Z,4.24
2023-01-06T08:47:15.695Z,3.5
2023-01-06T08:49:45.740Z,5.21
2023-01-06T08:52:15.775Z,3.86
2023-01-06T08:54:45.774Z,3.8
2023-01-06T08:57:15.797Z,3.69
2023-01-06T08:59:45.849Z,4.39
2023-01-06T09:02:15.921Z,5.49
2023-01-06T09:07:15.879Z,4.3
2023-01-06T09:12:15.938Z,8.36
2023-01-06T09:14:45.961Z,5.84
2023-01-06T09:17:15.973Z,5.1
2023-01-06T09:19:46.020Z,6.76
2023-01-06T09:22:16.038Z,5.11
2023-01-06T09:24:46.051Z,4.75
2023-01-06T09:32:16.129Z,5.22
2023-01-06T09:34:46.149Z,4.62
2023-01-06T09:39:46.211Z,9.68
2023-01-06T09:44:46.242Z,6.52
2023-01-06T09:47:16.272Z,4.9
2023-01-06T09:49:46.301Z,3.98
2023-01-06T09:54:46.343Z,3.78
2023-01-06T09:57:16.383Z,3.64
2023-01-06T09:59:46.402Z,3.66
2023-01-06T10:02:16.440Z,3.59
2023-01-06T10:04:46.432Z,2.35
2023-01-06T10:07:16.452Z,4.64
2023-01-06T10:09:47.057Z,4.31
2023-01-06T10:12:16.496Z,4.18
2023-01-06T10:17:16.566Z,2.8
2023-01-06T10:19:46.565Z,3.05
2023-01-06T10:22:16.589Z,6.64
2023-01-06T10:24:46.626Z,5.17
2023-01-06T10:27:16.692Z,5.44
2023-01-06T10:32:16.710Z,4.16
2023-01-06T10:34:46.752Z,3.85
2023-01-06T10:37:16.731Z,2.44
2023-01-06T10:39:46.780Z,2.89
2023-01-06T10:44:46.818Z,3.18
2023-01-06T10:47:16.834Z,9.24
2023-01-06T10:49:46.846Z,6.3
2023-01-06T10:54:46.896Z,6.38
2023-01-06T10:57:16.969Z,6.02
2023-01-06T10:59:46.938Z,7.43
2023-01-06T11:02:17.142Z,4.88
2023-01-06T11:04:47.009Z,3.36
2023-01-06T11:07:17.132Z,7.67
2023-01-06T11:09:47.049Z,4.75
2023-01-06T11:12:17.082Z,5.16
2023-01-06T11:17:17.108Z,3.18
2023-01-06T11:19:47.147Z,3.08
2023-01-06T11:22:18.760Z,3.88
2023-01-06T11:24:47.188Z,3.34
2023-01-06T11:29:47.241Z,7.03
2023-01-06T11:34:47.265Z,3.53
2023-01-06T11:37:17.306Z,3.61
2023-01-06T11:39:52.010Z,3.15
2023-01-06T11:44:47.376Z,3.17
2023-01-06T11:47:17.412Z,2.31
2023-01-06T11:54:47.472Z,3.27
2023-01-06T11:57:17.495Z,2.13
2023-01-06T11:59:47.534Z,3.22
2023-01-06T12:04:47.560Z,2.8
2023-01-06T12:07:17.603Z,3.58
2023-01-06T12:09:47.619Z,2.68
2023-01-06T12:14:47.668Z,3.03
2023-01-06T12:17:25.142Z,4.54
2023-01-06T12:19:47.748Z,2.71
2023-01-06T12:22:17.718Z,2.1
2023-01-06T12:24:47.778Z,1.59
2023-01-06T12:27:17.771Z,1.99
2023-01-06T12:29:47.800Z,1.62
2023-01-06T12:34:47.837Z,3.24
2023-01-06T12:37:17.871Z,3.18
2023-01-06T12:39:47.901Z,3.59
2023-01-06T12:44:47.944Z,1.89
2023-01-06T12:47:17.964Z,6.58
2023-01-06T12:49:47.977Z,4.52
2023-01-06T12:52:18.021Z,2.64
2023-01-06T12:54:48.033Z,2.23
2023-01-06T12:57:18.084Z,2.42
2023-01-06T12:59:48.075Z,2.03
2023-01-06T13:09:48.172Z,5.36
2023-01-06T13:12:18.233Z,3.96
2023-01-06T13:17:18.255Z,3.25
2023-01-06T13:19:48.269Z,2.06
2023-01-06T13:24:48.307Z,1.44
2023-01-06T13:27:18.349Z,4.92
2023-01-06T13:29:48.377Z,3.92
2023-01-06T13:32:18.371Z,2.97
2023-01-06T13:34:48.408Z,2.45
2023-01-06T13:37:18.448Z,2.36
2023-01-06T13:39:48.438Z,1.85
2023-01-06T13:42:18.497Z,1.57
2023-01-06T13:47:18.545Z,1.67
2023-01-06T13:49:48.548Z,1.98
2023-01-06T13:54:48.587Z,1.63
2023-01-06T13:57:18.623Z,2.59
2023-01-06T14:09:48.726Z,2.87
2023-01-06T14:12:18.763Z,3.54
2023-01-06T14:17:18.847Z,3.94
2023-01-06T14:24:48.878Z,2.48
2023-01-06T14:29:48.957Z,4.25
2023-01-06T14:32:18.967Z,5.01
2023-01-06T14:39:49.018Z,3.17
2023-01-06T14:44:49.071Z,2.89
2023-01-06T14:47:19.089Z,1.87
2023-01-06T14:49:49.118Z,1.78
2023-01-06T15:09:49.286Z,2.55
2023-01-06T15:14:49.425Z,2.34
2023-01-06T15:19:49.385Z,4.22
2023-01-06T15:22:19.450Z,3.75
2023-01-06T15:24:49.428Z,8.88
2023-01-06T15:29:49.500Z,6.54
2023-01-06T15:32:19.501Z,5.13
2023-01-06T15:34:49.526Z,3.53
2023-01-06T15:37:19.619Z,3.39
2023-01-06T15:39:49.594Z,2.91
2023-01-06T15:42:19.624Z,3.33
2023-01-06T15:44:49.648Z,4.28
2023-01-06T15:47:19.648Z,3.57
2023-01-06T15:49:49.684Z,3.76
2023-01-06T15:52:19.725Z,3.99
2023-01-06T15:54:49.788Z,4.19
2023-01-06T15:57:19.749Z,3.16
2023-01-06T15:59:49.765Z,2.92
2023-01-06T16:02:19.980Z,2.82
2023-01-06T16:04:49.879Z,3.24
2023-01-06T16:07:19.847Z,2.8
2023-01-06T16:09:49.879Z,2.42
2023-01-06T16:12:19.875Z,3.34
2023-01-06T16:14:49.932Z,3.97
2023-01-06T16:17:19.946Z,4.48
2023-01-06T16:19:49.974Z,4.09
2023-01-06T16:22:20.015Z,4.37
2023-01-06T16:24:50.061Z,5.22
2023-01-06T16:27:20.048Z,4.36
2023-01-06T16:29:50.070Z,5.41
2023-01-06T16:32:20.100Z,4.14
2023-01-06T16:34:50.146Z,3.89
2023-01-06T16:37:20.123Z,3.09
2023-01-06T16:39:50.178Z,2.77
2023-01-06T16:42:20.173Z,2.81
2023-01-06T16:44:50.206Z,4.74
2023-01-06T16:47:20.228Z,4.68
2023-01-06T16:49:50.238Z,3.95
2023-01-06T16:52:20.263Z,3.45
2023-01-06T16:54:50.292Z,6.28
2023-01-06T16:57:20.344Z,6.07
2023-01-06T16:59:50.355Z,9.14
2023-01-06T17:02:20.564Z,11.28
2023-01-06T17:04:50.459Z,11.09
2023-01-06T17:07:20.444Z,9.88
2023-01-06T17:09:50.458Z,6.91
2023-01-06T17:12:20.463Z,4.76
2023-01-06T17:14:50.478Z,4.85
2023-01-06T17:17:20.515Z,7.09
2023-01-06T17:19:50.564Z,10.45
2023-01-06T17:22:20.581Z,10.41
2023-01-06T17:24:50.597Z,9.13
2023-01-06T17:27:20.612Z,7.35
2023-01-06T17:29:50.601Z,6.86
2023-01-06T17:32:20.642Z,6.3
2023-01-06T17:34:50.711Z,7.49
2023-01-06T17:37:20.673Z,9.13
2023-01-06T17:39:50.742Z,8.78
2023-01-06T17:42:20.732Z,9.86
2023-01-06T17:44:50.798Z,8.78
2023-01-06T17:47:20.801Z,7.26
2023-01-06T17:49:50.805Z,7.74
2023-01-06T17:52:20.839Z,5.9
2023-01-06T17:54:50.874Z,6.83
2023-01-06T17:57:20.911Z,5.76
2023-01-06T17:59:50.923Z,6.08
2023-01-06T18:04:50.971Z,9.31
2023-01-06T18:07:20.971Z,10.41
2023-01-06T18:09:50.986Z,9.11
2023-01-06T18:12:21.014Z,7.36
2023-01-06T18:14:51.043Z,7.23
2023-01-06T18:17:21.073Z,7.27
2023-01-06T18:22:21.101Z,6.76
2023-01-06T18:24:51.141Z,6.91
2023-01-06T18:27:21.144Z,7.61
2023-01-06T18:29:51.194Z,7.1
2023-01-06T18:37:21.263Z,10.09
2023-01-06T18:39:51.287Z,8.76
2023-01-06T18:42:21.306Z,9.57
2023-01-06T18:44:51.338Z,9.14
2023-01-06T18:49:51.369Z,8.26
2023-01-06T18:57:21.452Z,7.38
2023-01-06T19:09:51.556Z,8.12
2023-01-06T19:17:21.642Z,8.36
2023-01-06T19:19:51.684Z,8.62
2023-01-06T19:22:21.690Z,7.63
2023-01-06T19:24:51.694Z,8.55
2023-01-06T19:34:51.792Z,12.72
2023-01-06T19:37:21.813Z,12.08
2023-01-06T19:44:51.908Z,10.4
2023-01-06T19:47:21.903Z,9.21
2023-01-06T19:52:21.978Z,10.61
2023-01-06T19:54:52.017Z,8.71
2023-01-06T19:57:22.002Z,11.34
2023-01-06T19:59:52.049Z,11.03
2023-01-06T20:04:52.120Z,11.17
2023-01-06T20:09:52.110Z,12.9
2023-01-06T20:12:22.158Z,10.65
2023-01-06T20:14:52.172Z,11.72
2023-01-06T20:22:22.232Z,10.69
2023-01-06T20:24:52.261Z,9.82
2023-01-06T20:29:52.308Z,10.04
2023-01-06T20:34:52.385Z,10.36
2023-01-06T20:37:22.371Z,9.98
2023-01-06T20:42:22.447Z,11.54
2023-01-06T20:47:22.466Z,10.65
2023-01-06T20:49:52.503Z,10.07
2023-01-06T20:54:52.548Z,10.02
2023-01-06T20:59:52.609Z,9.01
2023-01-06T21:04:52.657Z,8.71
2023-01-06T21:09:52.670Z,10.37
2023-01-06T21:12:22.707Z,10.44
2023-01-06T21:14:52.745Z,7.96
2023-01-06T21:19:52.785Z,9.23
2023-01-06T21:22:22.804Z,10.13
2023-01-06T21:24:52.824Z,7.93
2023-01-06T21:27:22.867Z,7.73
2023-01-06T21:29:52.856Z,8.04
2023-01-06T21:32:22.894Z,7.63
2023-01-06T21:34:52.916Z,8.41
2023-01-06T21:37:22.930Z,9.82
2023-01-06T21:39:52.967Z,9.57
2023-01-06T21:42:22.985Z,7.72
2023-01-06T21:44:53.000Z,7.99
2023-01-06T21:47:23.055Z,9.81
2023-01-06T21:49:53.063Z,10.82
2023-01-06T21:52:23.077Z,10.22
2023-01-06T21:54:53.113Z,8.42
2023-01-06T21:57:23.133Z,8.29
2023-01-06T21:59:53.140Z,8.25
2023-01-06T22:02:23.336Z,8.8
2023-01-06T22:04:53.204Z,8.55
2023-01-06T22:07:23.268Z,8.82
2023-01-06T22:09:53.250Z,10.85
2023-01-06T22:12:23.268Z,12.39
2023-01-06T22:17:23.334Z,10.11
2023-01-06T22:19:53.332Z,9.39
2023-01-06T22:22:23.358Z,12.24
2023-01-06T22:24:53.399Z,10.54
2023-01-06T22:27:23.419Z,10.83
2023-01-06T22:32:23.468Z,9.82
2023-01-06T22:34:53.486Z,9.85
2023-01-06T22:37:23.496Z,11.8
2023-01-06T22:39:53.514Z,12.2
2023-01-06T22:42:23.565Z,10.31
2023-01-06T22:44:53.629Z,10.4
2023-01-06T22:47:23.623Z,10.85
2023-01-06T22:49:53.645Z,12.64
2023-01-06T22:52:23.658Z,16.75
2023-01-06T22:54:53.667Z,15.46
2023-01-06T22:57:23.686Z,14.49
2023-01-06T22:59:53.730Z,14.04
2023-01-06T23:04:53.769Z,12.66
2023-01-06T23:07:23.792Z,15.08
2023-01-06T23:09:53.842Z,12.26
2023-01-06T23:12:23.826Z,11.15
2023-01-06T23:14:53.866Z,11.9
2023-01-06T23:17:23.888Z,14.27
2023-01-06T23:19:53.894Z,16.17
2023-01-06T23:22:23.930Z,11.81
2023-01-06T23:24:53.970Z,12.05
2023-01-06T23:29:53.985Z,10.8
2023-01-06T23:32:24.026Z,10.24
2023-01-06T23:34:54.042Z,11.36
2023-01-06T23:37:24.088Z,12.32
2023-01-06T23:39:54.119Z,13.11
2023-01-06T23:42:24.137Z,10.93
2023-01-06T23:44:54.148Z,12.06
2023-01-06T23:47:24.181Z,11.54
2023-01-06T23:49:54.199Z,11.29
2023-01-06T23:52:24.232Z,9.32
2023-01-06T23:54:54.220Z,9.32
2023-01-06T23:57:24.259Z,10.65
2023-01-06T23:59:54.318Z,8.89
